Time;durP1;ratioP1;P1;durP2;ratioP2;P2;SDS_P1;SDS_P2;PMS_P1;PMS_P2;Temp;Humidity;BMP_temperature;BMP_pressure;BME280_temperature;BME280_humidity;BME280_pressure;Samples;Min_cycle;Max_cycle;Signal;HPM_P1;HPM_P2
2023/12/24 00:02:09;;;;;;;1.05;0.20;;;;;;;12.46;100.00;99416.81;5050197;28;20131;-92
2023/12/24 00:04:35;;;;;;;0.32;0.10;;;;;;;12.46;100.00;99403.56;5018246;28;20045;-95
2023/12/24 00:07:00;;;;;;;0.38;0.00;;;;;;;12.45;100.00;99409.03;5037044;28;20037;-92
2023/12/24 00:09:26;;;;;;;0.32;0.10;;;;;;;12.46;100.00;99400.06;5026966;28;20503;-92
2023/12/24 00:11:52;;;;;;;0.93;0.03;;;;;;;12.46;100.00;99400.91;5034015;28;20060;-92
2023/12/24 00:14:18;;;;;;;0.00;0.00;;;;;;;12.40;100.00;99399.81;5068560;28;20492;-94
2023/12/24 00:16:44;;;;;;;0.00;0.00;;;;;;;12.38;100.00;99403.63;5018609;28;20064;-92
2023/12/24 00:19:10;;;;;;;2.05;0.20;;;;;;;12.40;100.00;99391.03;5016798;28;20029;-93
2023/12/24 00:21:36;;;;;;;2.03;0.10;;;;;;;12.39;100.00;99397.34;5016756;28;20112;-93
2023/12/24 00:24:02;;;;;;;0.93;0.10;;;;;;;12.39;100.00;99398.16;5047852;28;20041;-93
2023/12/24 00:26:28;;;;;;;0.43;0.10;;;;;;;12.39;100.00;99392.03;5026667;28;20040;-92
2023/12/24 00:28:53;;;;;;;0.40;0.10;;;;;;;12.40;100.00;99398.97;5049475;28;20029;-92
2023/12/24 00:31:19;;;;;;;1.75;0.20;;;;;;;12.40;100.00;99404.28;5025954;28;20040;-94
2023/12/24 00:33:45;;;;;;;2.00;0.20;;;;;;;12.38;100.00;99396.50;5019805;28;20128;-91
2023/12/24 00:36:11;;;;;;;0.98;0.10;;;;;;;12.40;100.00;99399.81;5010029;28;20060;-92
2023/12/24 00:38:37;;;;;;;1.27;0.10;;;;;;;12.42;100.00;99399.63;5010365;28;20049;-93
2023/12/24 00:41:03;;;;;;;1.38;0.20;;;;;;;12.35;100.00;99383.63;4996552;28;20036;-93
2023/12/24 00:43:29;;;;;;;0.43;0.17;;;;;;;12.40;100.00;99391.03;4976823;28;20708;-93
2023/12/24 00:45:55;;;;;;;1.27;0.30;;;;;;;12.39;100.00;99394.69;4996839;28;20072;-93
2023/12/24 00:48:21;;;;;;;1.88;0.50;;;;;;;12.39;100.00;99379.59;5015672;28;20385;-92
2023/12/24 00:50:46;;;;;;;1.25;0.20;;;;;;;12.35;100.00;99372.19;5013944;28;20037;-92
2023/12/24 00:53:12;;;;;;;1.88;0.20;;;;;;;12.37;100.00;99378.16;5029922;28;20037;-94
2023/12/24 00:55:39;;;;;;;0.77;0.22;;;;;;;12.36;100.00;99372.00;5015493;28;20043;-94
2023/12/24 00:58:05;;;;;;;1.98;0.22;;;;;;;12.34;100.00;99376.66;5015014;28;20045;-92
2023/12/24 01:00:31;;;;;;;2.95;0.38;;;;;;;12.34;100.00;99383.81;5015128;28;20388;-93
2023/12/24 01:02:57;;;;;;;2.85;0.60;;;;;;;12.32;100.00;99380.50;5014294;28;20040;-92
2023/12/24 01:05:23;;;;;;;2.38;0.20;;;;;;;12.37;100.00;99378.97;5025785;28;20049;-93
2023/12/24 01:07:49;;;;;;;1.60;0.25;;;;;;;12.35;100.00;99372.19;4993656;28;20045;-92
2023/12/24 01:10:15;;;;;;;1.08;0.52;;;;;;;12.38;100.00;99367.38;5013732;28;20041;-94
2023/12/24 01:12:42;;;;;;;1.85;0.30;;;;;;;12.37;100.00;99362.25;5046275;28;20053;-93
2023/12/24 01:15:08;;;;;;;2.00;0.20;;;;;;;12.38;100.00;99371.81;4998879;28;20032;-93
2023/12/24 01:17:34;;;;;;;2.22;0.30;;;;;;;12.40;100.00;99373.31;5001025;28;20041;-92
2023/12/24 01:20:00;;;;;;;0.95;0.30;;;;;;;12.40;100.00;99370.66;4997699;28;20040;-91
2023/12/24 01:22:26;;;;;;;4.70;0.30;;;;;;;12.45;100.00;99372.75;5010901;28;20046;-94
2023/12/24 01:24:52;;;;;;;3.58;0.30;;;;;;;12.45;100.00;99353.38;5015094;28;20041;-94
2023/12/24 01:27:18;;;;;;;1.35;0.20;;;;;;;12.46;100.00;99377.03;5014859;28;20082;-93
2023/12/24 01:29:44;;;;;;;1.40;0.38;;;;;;;12.39;100.00;99369.00;5013408;28;20489;-94
2023/12/24 01:32:10;;;;;;;0.73;0.20;;;;;;;12.48;100.00;99356.50;4999387;28;20037;-93
2023/12/24 01:34:35;;;;;;;0.60;0.13;;;;;;;12.50;100.00;99362.41;5011801;28;20034;-93
2023/12/24 01:37:01;;;;;;;0.85;0.38;;;;;;;12.48;100.00;99360.97;5014130;28;20069;-94
2023/12/24 01:39:27;;;;;;;1.98;0.28;;;;;;;12.49;100.00;99349.34;5014832;28;20043;-93
2023/12/24 01:41:53;;;;;;;1.95;0.28;;;;;;;12.50;100.00;99340.41;5006615;28;20474;-93
2023/12/24 01:44:19;;;;;;;0.30;0.10;;;;;;;12.52;100.00;99349.81;5018302;28;20045;-94
2023/12/24 01:46:45;;;;;;;1.60;0.43;;;;;;;12.53;100.00;99340.84;5015348;28;20091;-93
2023/12/24 01:49:14;;;;;;;1.10;0.15;;;;;;;12.56;100.00;99346.78;5030143;28;20048;-93
2023/12/24 01:51:40;;;;;;;1.60;0.10;;;;;;;12.49;100.00;99338.75;5014933;28;20043;-92
2023/12/24 01:54:07;;;;;;;1.27;0.13;;;;;;;12.51;100.00;99340.22;5015667;28;20032;-92
2023/12/24 01:56:35;;;;;;;0.63;0.10;;;;;;;12.52;100.00;99328.59;5015167;28;20044;-93
2023/12/24 01:59:02;;;;;;;0.98;0.10;;;;;;;12.52;100.00;99328.59;5014608;28;20179;-94
2023/12/24 02:01:28;;;;;;;0.50;0.10;;;;;;;12.52;100.00;99328.59;5017471;28;20052;-96
2023/12/24 02:03:55;;;;;;;0.82;0.15;;;;;;;12.53;100.00;99316.19;5026258;28;20040;-96
2023/12/24 02:06:21;;;;;;;0.75;0.10;;;;;;;12.55;100.00;99318.66;5003059;28;20037;-94
2023/12/24 02:08:47;;;;;;;5.22;0.20;;;;;;;12.55;100.00;99308.84;5018337;28;20041;-93
2023/12/24 02:11:15;;;;;;;1.45;0.10;;;;;;;12.52;100.00;99306.56;5017783;28;20044;-93
2023/12/24 02:13:40;;;;;;;0.32;0.15;;;;;;;12.53;100.00;99298.44;5018181;28;20506;-94
2023/12/24 02:16:08;;;;;;;1.25;0.10;;;;;;;12.52;100.00;99303.91;5014523;28;20072;-95
2023/12/24 02:18:34;;;;;;;0.95;0.10;;;;;;;12.56;100.00;99307.84;5014527;28;20033;-93
2023/12/24 02:21:04;;;;;;;0.60;0.10;;;;;;;12.64;100.00;99307.75;4998414;28;20034;-91
2023/12/24 02:23:30;;;;;;;0.82;0.10;;;;;;;12.61;100.00;99304.66;5030819;28;20083;-92
2023/12/24 02:26:01;;;;;;;1.30;0.10;;;;;;;12.62;100.00;99291.22;5000982;28;20037;-92
2023/12/24 02:28:36;;;;;;;0.05;0.05;;;;;;;12.63;100.00;99290.19;5007296;28;20037;-92
2023/12/24 02:31:08;;;;;;;0.55;0.05;;;;;;;12.67;100.00;99295.94;5011090;28;20038;-93
2023/12/24 02:33:40;;;;;;;0.50;0.00;;;;;;;12.70;100.00;99286.78;5018180;28;20037;-93
2023/12/24 02:36:09;;;;;;;0.20;0.00;;;;;;;12.67;100.00;99279.22;5019039;28;20037;-93
2023/12/24 02:38:35;;;;;;;0.10;0.00;;;;;;;12.65;100.00;99290.00;5016044;28;20080;-94
2023/12/24 02:41:02;;;;;;;0.10;0.10;;;;;;;12.72;100.00;99300.69;5014515;28;20047;-94
2023/12/24 02:43:28;;;;;;;1.05;0.10;;;;;;;12.66;100.00;99281.06;5022433;28;20092;-92
2023/12/24 02:45:59;;;;;;;0.20;0.00;;;;;;;12.68;100.00;99286.97;5012883;28;20033;-93
2023/12/24 02:48:27;;;;;;;0.00;0.00;;;;;;;12.68;100.00;99284.31;5035993;28;20048;-93
2023/12/24 02:50:56;;;;;;;0.93;0.13;;;;;;;12.71;100.00;99289.25;5016055;28;20041;-92
2023/12/24 02:53:27;;;;;;;0.65;0.05;;;;;;;12.71;100.00;99291.91;5015948;28;20044;-93
2023/12/24 02:55:53;;;;;;;0.32;0.08;;;;;;;12.74;100.00;99285.44;5020243;28;20026;-92
2023/12/24 02:58:19;;;;;;;0.57;0.00;;;;;;;12.75;100.00;99284.41;5017149;28;20394;-95
2023/12/24 03:00:45;;;;;;;0.15;0.08;;;;;;;12.74;100.00;99291.53;5015630;28;20516;-93
2023/12/24 03:03:11;;;;;;;0.47;0.20;;;;;;;12.74;100.00;99298.69;5000315;28;20041;-94
2023/12/24 03:05:37;;;;;;;1.27;0.10;;;;;;;12.72;100.00;99288.25;5007951;28;20496;-94
2023/12/24 03:08:03;;;;;;;0.00;0.00;;;;;;;12.69;100.00;99280.69;5017936;28;20077;-93
2023/12/24 03:10:29;;;;;;;0.03;0.00;;;;;;;12.75;100.00;99293.19;5001391;28;20040;-93
2023/12/24 03:12:54;;;;;;;0.40;0.08;;;;;;;12.72;100.00;99290.09;5000783;28;20871;-92
2023/12/24 03:15:20;;;;;;;0.08;0.08;;;;;;;12.76;100.00;99284.22;5017359;28;20048;-95
2023/12/24 03:17:46;;;;;;;0.38;0.05;;;;;;;12.78;100.00;99286.69;5001125;28;20064;-92
2023/12/24 03:20:12;;;;;;;0.00;0.00;;;;;;;12.71;100.00;99272.53;5001485;28;20042;-93
2023/12/24 03:22:38;;;;;;;0.10;0.00;;;;;;;12.73;100.00;99275.81;5017567;28;20116;-93
2023/12/24 03:25:04;;;;;;;0.65;0.10;;;;;;;12.75;100.00;99287.88;5017513;28;20558;-91
2023/12/24 03:27:32;;;;;;;1.30;0.10;;;;;;;12.74;100.00;99282.78;5033253;28;20033;-92
2023/12/24 03:29:58;;;;;;;0.45;0.00;;;;;;;12.77;100.00;99272.59;5021872;28;20422;-93
2023/12/24 03:32:24;;;;;;;0.00;0.00;;;;;;;12.72;100.00;99261.75;5019668;28;20403;-92
2023/12/24 03:34:49;;;;;;;0.30;0.00;;;;;;;12.72;100.00;99264.41;4993978;28;20072;-92
2023/12/24 03:37:15;;;;;;;0.28;0.00;;;;;;;12.73;100.00;99263.38;5000299;28;20127;-93
2023/12/24 03:39:41;;;;;;;0.08;0.00;;;;;;;12.73;100.00;99246.66;5013969;28;20038;-92
2023/12/24 03:42:07;;;;;;;0.43;0.00;;;;;;;12.70;100.00;99247.03;5017922;28;20041;-92
2023/12/24 03:44:33;;;;;;;0.00;0.00;;;;;;;12.77;100.00;99239.97;5026553;28;20033;-92
2023/12/24 03:47:02;;;;;;;0.20;0.10;;;;;;;12.77;100.00;99239.97;5012775;28;20040;-92
2023/12/24 03:49:28;;;;;;;0.00;0.00;;;;;;;12.79;100.00;99232.63;5017443;28;20038;-92
2023/12/24 03:51:54;;;;;;;0.10;0.00;;;;;;;12.78;100.00;99233.66;5002500;28;20037;-92
2023/12/24 03:54:21;;;;;;;0.22;0.00;;;;;;;12.77;100.00;99198.34;4998510;28;20061;-92
2023/12/24 03:56:48;;;;;;;0.08;0.03;;;;;;;12.80;100.00;99212.25;5021833;28;20041;-93
2023/12/24 03:59:17;;;;;;;0.32;0.00;;;;;;;12.81;100.00;99201.44;5001785;28;20060;-94
2023/12/24 04:02:11;;;;;;;0.03;0.03;;;;;;;12.89;100.00;99189.91;5006890;28;20129;-95
2023/12/24 04:04:58;;;;;;;1.15;0.13;;;;;;;12.93;100.00;99214.22;5012905;28;20467;-96
2023/12/24 04:07:33;;;;;;;0.00;0.00;;;;;;;12.89;100.00;99211.09;5002977;28;20056;-96
2023/12/24 04:09:59;;;;;;;0.10;0.03;;;;;;;12.87;100.00;99224.56;4997565;28;20037;-92
2023/12/24 04:12:26;;;;;;;0.52;0.13;;;;;;;12.86;100.00;99214.13;5014175;28;20073;-93
2023/12/24 04:14:52;;;;;;;0.17;0.10;;;;;;;12.89;100.00;99208.44;4999584;28;20037;-93
2023/12/24 04:17:17;;;;;;;0.03;0.00;;;;;;;12.94;100.00;99214.00;5000199;28;20087;-92
2023/12/24 04:19:46;;;;;;;0.20;0.10;;;;;;;12.94;100.00;99197.28;5012698;28;20037;-93
2023/12/24 04:22:21;;;;;;;0.70;0.10;;;;;;;12.97;100.00;99199.53;5014032;28;20041;-93
2023/12/24 04:24:47;;;;;;;0.10;0.00;;;;;;;12.99;100.00;99205.50;5012911;28;20029;-92
2023/12/24 04:27:13;;;;;;;0.30;0.10;;;;;;;12.95;100.00;99185.69;5008448;28;20091;-94
2023/12/24 04:29:42;;;;;;;0.20;0.10;;;;;;;12.93;100.00;99183.22;4993015;28;20041;-93
2023/12/24 04:32:12;;;;;;;1.65;0.00;;;;;;;12.93;100.00;99193.81;5007571;28;20494;-94
2023/12/24 04:34:38;;;;;;;0.10;0.00;;;;;;;12.94;100.00;99182.19;5009069;28;20091;-94
2023/12/24 04:37:04;;;;;;;0.28;0.10;;;;;;;12.89;100.00;99193.38;5013971;28;20121;-92
2023/12/24 04:39:31;;;;;;;0.65;0.00;;;;;;;12.86;100.00;99188.44;5014194;28;20033;-94
2023/12/24 04:42:00;;;;;;;0.00;0.00;;;;;;;12.92;100.00;99197.47;4991587;28;20048;-94
2023/12/24 04:44:26;;;;;;;0.70;0.00;;;;;;;12.88;100.00;99175.00;4997510;28;20061;-93
2023/12/24 04:46:52;;;;;;;0.70;0.08;;;;;;;12.89;100.00;99190.72;5023260;28;20072;-94
2023/12/24 04:49:18;;;;;;;0.08;0.00;;;;;;;12.92;100.00;99186.03;5012629;28;20056;-94
2023/12/24 04:51:45;;;;;;;0.57;0.10;;;;;;;12.89;100.00;99193.38;5014528;28;20048;-95
2023/12/24 04:54:11;;;;;;;0.20;0.00;;;;;;;12.90;100.00;99186.22;5016162;28;20049;-95
2023/12/24 04:56:37;;;;;;;0.85;0.00;;;;;;;12.93;100.00;99175.25;5009902;28;20026;-92
2023/12/24 04:59:04;;;;;;;0.30;0.00;;;;;;;12.94;100.00;99171.59;5029497;28;20041;-93
2023/12/24 05:01:30;;;;;;;0.70;0.00;;;;;;;12.92;100.00;99178.91;5015201;28;20099;-93
2023/12/24 05:03:57;;;;;;;0.47;0.00;;;;;;;12.96;100.00;99174.03;5020894;28;20064;-91
2023/12/24 05:06:27;;;;;;;0.20;0.10;;;;;;;12.91;100.00;99153.41;5012973;28;20482;-96
2023/12/24 05:08:52;;;;;;;0.32;0.00;;;;;;;12.92;100.00;99157.69;5021612;28;20053;-94
2023/12/24 05:11:21;;;;;;;0.60;0.10;;;;;;;12.86;100.00;99143.38;5014312;28;20044;-93
2023/12/24 05:13:47;;;;;;;0.20;0.00;;;;;;;12.89;100.00;99147.47;4991172;28;20111;-92
2023/12/24 05:16:13;;;;;;;0.00;0.00;;;;;;;12.87;100.00;99154.78;5011062;28;20040;-92
2023/12/24 05:18:39;;;;;;;0.22;0.03;;;;;;;12.91;100.00;99156.06;5002240;28;20033;-94
2023/12/24 05:21:05;;;;;;;0.00;0.00;;;;;;;12.87;100.00;99162.72;5016118;28;20044;-92
2023/12/24 05:23:31;;;;;;;1.10;0.10;;;;;;;12.87;100.00;99179.47;5010693;28;20045;-94
2023/12/24 05:25:57;;;;;;;0.00;0.00;;;;;;;12.83;100.00;99170.28;5033179;28;20063;-94
2023/12/24 05:28:23;;;;;;;0.00;0.00;;;;;;;12.83;100.00;99164.97;5017818;28;20111;-94
2023/12/24 05:30:49;;;;;;;0.10;0.10;;;;;;;12.86;100.00;99150.50;4999198;28;20484;-92
2023/12/24 05:33:15;;;;;;;0.35;0.10;;;;;;;12.83;100.00;99161.47;4998304;28;20064;-92
2023/12/24 05:35:41;;;;;;;0.22;0.00;;;;;;;12.82;100.00;99157.19;4998683;28;20033;-94
2023/12/24 05:38:06;;;;;;;0.00;0.00;;;;;;;12.82;100.00;99150.06;4999982;28;20040;-92
2023/12/24 05:40:32;;;;;;;0.10;0.00;;;;;;;12.81;100.00;99150.25;4997669;28;20041;-92
2023/12/24 05:42:58;;;;;;;0.47;0.00;;;;;;;12.81;100.00;99147.59;5018937;28;20048;-94
2023/12/24 05:45:24;;;;;;;0.00;0.00;;;;;;;12.80;100.00;99136.19;5002700;28;20029;-93
2023/12/24 05:47:50;;;;;;;0.25;0.20;;;;;;;12.86;100.00;99138.06;5022384;28;20385;-93
2023/12/24 05:50:16;;;;;;;1.05;0.10;;;;;;;12.84;100.00;99107.44;5000638;28;20038;-92
2023/12/24 05:52:42;;;;;;;0.47;0.00;;;;;;;12.80;100.00;99122.94;5018642;28;20033;-93
2023/12/24 05:55:09;;;;;;;0.47;0.10;;;;;;;12.84;100.00;99121.53;5002917;28;20500;-94
2023/12/24 05:57:35;;;;;;;0.43;0.05;;;;;;;12.83;100.00;99109.28;5018076;28;20083;-94
2023/12/24 06:00:01;;;;;;;0.10;0.00;;;;;;;12.83;100.00;99111.09;4999919;28;20123;-94
2023/12/24 06:02:27;;;;;;;0.10;0.10;;;;;;;12.82;100.00;99115.56;5011052;28;21000;-94
2023/12/24 06:04:53;;;;;;;0.85;0.10;;;;;;;12.83;100.00;99108.44;5018576;28;20099;-93
2023/12/24 06:07:19;;;;;;;0.10;0.00;;;;;;;12.82;100.00;99098.88;5014803;28;20393;-92
2023/12/24 06:09:45;;;;;;;0.00;0.00;;;;;;;12.85;100.00;99103.78;5013712;28;20054;-94
2023/12/24 06:12:11;;;;;;;0.00;0.00;;;;;;;12.85;100.00;99072.75;5002698;28;20044;-94
2023/12/24 06:14:37;;;;;;;0.00;0.00;;;;;;;12.87;100.00;99078.72;5018391;28;20033;-93
2023/12/24 06:17:03;;;;;;;0.63;0.10;;;;;;;12.89;100.00;99087.28;5018332;28;20087;-92
2023/12/24 06:19:29;;;;;;;0.03;0.00;;;;;;;12.90;100.00;99072.19;5016040;28;20044;-92
2023/12/24 06:21:55;;;;;;;0.38;0.00;;;;;;;12.92;100.00;99082.59;4999239;28;20131;-94
2023/12/24 06:24:24;;;;;;;0.17;0.00;;;;;;;12.92;100.00;99082.59;4987986;28;20133;-93
2023/12/24 06:26:54;;;;;;;0.00;0.00;;;;;;;12.94;100.00;99078.75;5031846;28;20034;-92
2023/12/24 06:29:19;;;;;;;0.05;0.00;;;;;;;12.94;100.00;99080.59;5018511;28;20040;-92
2023/12/24 06:31:45;;;;;;;0.10;0.05;;;;;;;12.93;100.00;99087.75;5028896;28;20030;-92
2023/12/24 06:34:11;;;;;;;0.10;0.00;;;;;;;12.93;100.00;99095.69;5034659;28;20508;-94
2023/12/24 06:36:38;;;;;;;0.05;0.00;;;;;;;12.94;100.00;99076.09;4998525;28;20072;-91
2023/12/24 06:39:04;;;;;;;3.72;0.00;;;;;;;12.95;100.00;99076.94;5016551;28;20030;-93
2023/12/24 06:41:30;;;;;;;0.00;0.00;;;;;;;12.90;100.00;99083.63;5001837;28;20033;-92
2023/12/24 06:43:57;;;;;;;0.52;0.10;;;;;;;12.94;100.00;99077.94;5026619;28;20040;-94
2023/12/24 06:46:24;;;;;;;0.22;0.00;;;;;;;12.90;100.00;99066.88;5018500;28;20454;-93
2023/12/24 06:48:51;;;;;;;0.28;0.00;;;;;;;12.89;100.00;99070.56;5034181;28;20064;-94
2023/12/24 06:51:17;;;;;;;0.43;0.00;;;;;;;12.87;100.00;99072.56;5001188;28;20033;-94
2023/12/24 06:53:43;;;;;;;0.00;0.00;;;;;;;12.90;100.00;99078.31;5030040;28;20045;-93
2023/12/24 06:56:09;;;;;;;0.63;0.08;;;;;;;12.90;100.00;99088.09;5017006;28;20037;-93
2023/12/24 06:58:36;;;;;;;0.00;0.00;;;;;;;12.92;100.00;99093.22;5028848;28;20096;-93
2023/12/24 07:01:01;;;;;;;0.20;0.00;;;;;;;12.90;100.00;99098.69;5016377;28;20493;-93
2023/12/24 07:03:27;;;;;;;0.13;0.05;;;;;;;12.93;100.00;99086.91;4999784;28;20103;-92
2023/12/24 07:05:53;;;;;;;0.00;0.00;;;;;;;12.91;100.00;99100.38;5019016;28;20052;-92
2023/12/24 07:08:22;;;;;;;0.00;0.00;;;;;;;12.94;100.00;99088.53;5020311;28;20038;-94
2023/12/24 07:10:48;;;;;;;0.25;0.00;;;;;;;12.94;100.00;99091.19;5033482;28;20121;-92
2023/12/24 07:13:14;;;;;;;0.00;0.00;;;;;;;12.92;100.00;99070.16;5017881;28;20144;-93
2023/12/24 07:15:42;;;;;;;0.00;0.00;;;;;;;12.99;100.00;99086.13;5017270;28;20030;-92
2023/12/24 07:18:08;;;;;;;0.00;0.00;;;;;;;12.94;100.00;99078.75;5018299;28;20390;-92
2023/12/24 07:20:34;;;;;;;0.00;0.00;;;;;;;12.93;100.00;99079.78;5018052;28;20029;-93
2023/12/24 07:23:00;;;;;;;0.00;0.00;;;;;;;12.93;100.00;99084.25;5018613;28;20033;-90
2023/12/24 07:25:26;;;;;;;2.00;0.00;;;;;;;12.93;100.00;99078.97;4996696;28;20044;-93
2023/12/24 07:27:52;;;;;;;0.43;0.00;;;;;;;12.89;100.00;99079.34;5020065;28;20049;-94
2023/12/24 07:30:18;;;;;;;0.40;0.10;;;;;;;12.94;100.00;99088.53;5017695;28;20038;-92
2023/12/24 07:32:44;;;;;;;0.20;0.00;;;;;;;12.95;100.00;99098.16;4998679;28;20053;-92
2023/12/24 07:35:10;;;;;;;0.00;0.00;;;;;;;12.92;100.00;99079.94;5017396;28;20033;-93
2023/12/24 07:37:38;;;;;;;0.00;0.00;;;;;;;12.92;100.00;99075.47;5016641;28;20045;-92
2023/12/24 07:40:04;;;;;;;0.13;0.00;;;;;;;12.91;100.00;99063.25;5016656;28;20056;-93
2023/12/24 07:42:30;;;;;;;0.35;0.00;;;;;;;12.89;100.00;99097.91;5017387;28;20112;-91
2023/12/24 07:44:56;;;;;;;1.45;0.35;;;;;;;12.90;100.00;99073.00;5016530;28;20033;-92
2023/12/24 07:47:21;;;;;;;0.00;0.00;;;;;;;12.88;100.00;99076.88;5014770;28;20040;-92
2023/12/24 07:49:47;;;;;;;0.40;0.08;;;;;;;12.88;100.00;99082.19;5016157;28;20029;-93
2023/12/24 07:52:13;;;;;;;0.10;0.00;;;;;;;12.87;100.00;99072.56;5014874;28;20056;-92
2023/12/24 07:54:39;;;;;;;0.38;0.10;;;;;;;12.86;100.00;99073.59;5015367;28;20041;-92
2023/12/24 07:57:05;;;;;;;0.45;0.10;;;;;;;12.82;100.00;99069.69;5013245;28;20490;-93
2023/12/24 07:59:30;;;;;;;0.10;0.00;;;;;;;12.81;100.00;99070.69;5007222;28;20117;-93
2023/12/24 08:01:56;;;;;;;0.00;0.00;;;;;;;12.83;100.00;99058.06;5048629;28;20037;-92
2023/12/24 08:04:22;;;;;;;0.47;0.10;;;;;;;12.84;100.00;99049.94;5034100;28;20041;-92
2023/12/24 08:06:50;;;;;;;1.95;0.17;;;;;;;12.83;100.00;99050.94;5014514;28;20037;-93
2023/12/24 08:09:15;;;;;;;0.63;0.10;;;;;;;12.85;100.00;99061.38;5000451;28;20547;-91
2023/12/24 08:11:41;;;;;;;0.65;0.10;;;;;;;12.83;100.00;99058.91;5003824;28;20029;-93
2023/12/24 08:14:07;;;;;;;0.43;0.00;;;;;;;12.86;100.00;99052.38;5014200;28;20049;-90
2023/12/24 08:16:32;;;;;;;1.08;0.10;;;;;;;12.83;100.00;99045.66;5007150;28;20053;-92
2023/12/24 08:18:58;;;;;;;0.30;0.10;;;;;;;12.83;100.00;99052.78;5032343;28;20033;-92
2023/12/24 08:21:24;;;;;;;0.40;0.00;;;;;;;12.83;100.00;99061.56;5012452;28;20076;-92
2023/12/24 08:23:50;;;;;;;0.35;0.10;;;;;;;12.81;100.00;99065.41;5015854;28;20373;-93
2023/12/24 08:26:18;;;;;;;0.05;0.00;;;;;;;12.81;100.00;99052.97;5009374;28;20056;-91
2023/12/24 08:28:44;;;;;;;0.20;0.10;;;;;;;12.82;100.00;99064.41;5012059;28;20447;-91
2023/12/24 08:31:10;;;;;;;0.30;0.10;;;;;;;12.84;100.00;99067.66;5017828;28;20030;-89
2023/12/24 08:33:37;;;;;;;0.55;0.10;;;;;;;12.82;100.00;99061.75;5006520;28;20512;-90
2023/12/24 08:36:04;;;;;;;0.60;0.20;;;;;;;12.82;100.00;99061.75;5011242;28;20026;-90
2023/12/24 08:38:30;;;;;;;1.17;0.10;;;;;;;12.85;100.00;99066.66;5030813;28;20033;-92
2023/12/24 08:40:56;;;;;;;0.05;0.00;;;;;;;12.84;100.00;99059.69;5043227;28;20088;-89
2023/12/24 08:43:22;;;;;;;0.88;0.20;;;;;;;12.79;100.00;99060.28;5011329;28;20111;-90
2023/12/24 08:45:48;;;;;;;0.88;0.10;;;;;;;12.80;100.00;99055.81;5013006;28;20046;-95
2023/12/24 08:48:14;;;;;;;2.22;2.03;;;;;;;12.81;100.00;99062.75;5001761;28;20121;-94
2023/12/24 08:50:39;;;;;;;0.47;0.08;;;;;;;12.76;100.00;99052.72;4998810;28;20889;-92
2023/12/24 08:53:05;;;;;;;1.40;0.10;;;;;;;12.76;100.00;99058.03;5012899;28;20034;-91
2023/12/24 08:55:31;;;;;;;0.40;0.10;;;;;;;12.75;100.00;99057.22;5004796;28;20598;-90
2023/12/24 08:57:58;;;;;;;0.38;0.30;;;;;;;12.77;100.00;99068.44;5011830;28;20053;-90
2023/12/24 09:00:24;;;;;;;0.00;0.00;;;;;;;12.72;100.00;99056.78;5034305;28;20041;-91
2023/12/24 09:02:50;;;;;;;0.28;0.10;;;;;;;12.71;100.00;99077.16;4997619;28;20037;-90
2023/12/24 09:05:18;;;;;;;0.82;0.32;;;;;;;12.70;100.00;99072.06;5013208;28;20456;-92
2023/12/24 09:07:45;;;;;;;0.38;0.10;;;;;;;12.75;100.00;99056.38;5002568;28;20374;-90
2023/12/24 09:10:11;;;;;;;0.15;0.15;;;;;;;12.72;100.00;99065.56;4987548;28;20065;-91
2023/12/24 09:12:37;;;;;;;0.82;0.10;;;;;;;12.70;100.00;99066.75;5009869;28;20094;-90
2023/12/24 09:15:04;;;;;;;0.57;0.10;;;;;;;12.73;100.00;99063.72;5012720;28;20110;-91
2023/12/24 09:17:30;;;;;;;0.38;0.20;;;;;;;12.68;100.00;99063.50;5007485;28;20520;-90
2023/12/24 09:19:56;;;;;;;0.30;0.10;;;;;;;12.67;100.00;99078.56;4994853;28;20029;-92
2023/12/24 09:22:22;;;;;;;1.52;0.30;;;;;;;12.65;100.00;99081.41;5009366;28;20125;-91
2023/12/24 09:24:48;;;;;;;0.75;0.10;;;;;;;12.64;100.00;99063.88;5024730;28;20116;-90
2023/12/24 09:27:13;;;;;;;0.20;0.10;;;;;;;12.63;100.00;99075.47;5026364;28;20041;-92
2023/12/24 09:29:39;;;;;;;0.85;0.10;;;;;;;12.65;100.00;99088.53;5014277;28;20370;-92
2023/12/24 09:32:05;;;;;;;1.75;0.55;;;;;;;12.64;100.00;99076.28;5008651;28;20033;-92
2023/12/24 09:34:31;;;;;;;1.02;0.50;;;;;;;12.64;100.00;99082.44;5027617;28;20132;-92
2023/12/24 09:36:57;;;;;;;2.05;0.20;;;;;;;12.61;100.00;99077.47;4998832;28;20033;-91
2023/12/24 09:39:23;;;;;;;0.80;0.40;;;;;;;12.65;100.00;99096.47;5014979;28;20038;-90
2023/12/24 09:41:49;;;;;;;1.48;0.10;;;;;;;12.67;100.00;99099.78;5009406;28;20090;-90
2023/12/24 09:44:15;;;;;;;3.40;2.03;;;;;;;12.61;100.00;99096.03;4991034;28;20033;-92
2023/12/24 09:46:41;;;;;;;0.73;0.40;;;;;;;12.62;100.00;99079.13;4993692;28;20552;-91
2023/12/24 09:49:06;;;;;;;0.93;0.10;;;;;;;12.60;100.00;99085.63;4996989;28;20022;-92
2023/12/24 09:51:37;;;;;;;0.30;0.20;;;;;;;12.61;100.00;99074.03;5019546;28;20038;-90
2023/12/24 09:54:04;;;;;;;0.82;0.20;;;;;;;12.57;100.00;99073.59;5013186;28;20096;-91
2023/12/24 09:56:30;;;;;;;1.85;0.30;;;;;;;12.57;100.00;99083.34;5021999;28;20065;-92
2023/12/24 09:58:56;;;;;;;0.50;0.10;;;;;;;12.57;100.00;99096.63;5013384;28;20061;-93
2023/12/24 10:01:22;;;;;;;0.95;0.50;;;;;;;12.56;100.00;99087.88;4991473;28;20132;-94
2023/12/24 10:03:48;;;;;;;1.75;0.40;;;;;;;12.55;100.00;99096.81;4996051;28;20041;-93
2023/12/24 10:06:14;;;;;;;1.90;0.20;;;;;;;12.54;100.00;99103.13;4989734;28;20109;-93
2023/12/24 10:08:40;;;;;;;3.28;2.05;;;;;;;12.57;100.00;99096.63;5015799;28;20065;-92
2023/12/24 10:11:20;;;;;;;1.20;0.73;;;;;;;12.60;100.00;99086.47;5006873;28;20034;-93
2023/12/24 10:13:56;;;;;;;2.65;0.60;;;;;;;12.57;100.00;99078.88;5012341;28;20357;-92
2023/12/24 10:16:22;;;;;;;1.30;0.52;;;;;;;12.56;100.00;99110.88;5013648;28;20124;-92
2023/12/24 10:18:49;;;;;;;4.75;1.40;;;;;;;12.55;100.00;99109.25;5016068;28;20096;-93
2023/12/24 10:21:16;;;;;;;4.93;1.45;;;;;;;12.56;100.00;99109.06;5018712;28;20034;-91
2023/12/24 10:23:42;;;;;;;10.88;2.65;;;;;;;12.53;100.00;99118.19;5015071;28;20033;-91
2023/12/24 10:26:11;;;;;;;2.50;0.70;;;;;;;12.60;100.00;99112.97;5018738;28;20048;-92
2023/12/24 10:28:49;;;;;;;2.10;0.50;;;;;;;12.61;100.00;99125.19;5012665;28;20030;-94
2023/12/24 10:31:14;;;;;;;4.88;1.25;;;;;;;12.59;100.00;99148.44;5014511;28;20029;-93
2023/12/24 10:33:40;;;;;;;2.70;1.52;;;;;;;12.61;100.00;99130.50;5009780;28;20518;-93
2023/12/24 10:36:07;;;;;;;2.88;0.57;;;;;;;12.58;100.00;99136.19;5016948;28;20038;-92
2023/12/24 10:38:34;;;;;;;3.17;0.82;;;;;;;12.57;100.00;99152.28;5016560;28;20029;-93
2023/12/24 10:41:01;;;;;;;3.05;0.50;;;;;;;12.56;100.00;99134.75;5014475;28;20037;-91
2023/12/24 10:43:28;;;;;;;5.50;1.92;;;;;;;12.56;100.00;99132.91;5016581;28;20038;-94
2023/12/24 10:45:55;;;;;;;3.70;0.50;;;;;;;12.53;100.00;99126.16;5003001;28;20406;-95
2023/12/24 10:48:22;;;;;;;1.60;0.30;;;;;;;12.52;100.00;99116.56;5002493;28;20036;-92
2023/12/24 10:50:49;;;;;;;4.18;0.75;;;;;;;12.56;100.00;99129.44;4999089;28;20038;-94
2023/12/24 10:53:15;;;;;;;1.95;0.40;;;;;;;12.57;100.00;99133.72;5014978;28;20034;-92
2023/12/24 10:55:50;;;;;;;2.92;0.73;;;;;;;12.60;100.00;99133.34;5012933;28;20041;-92
2023/12/24 10:58:40;;;;;;;1.40;0.43;;;;;;;12.59;100.00;99132.53;5016464;28;20062;-93
2023/12/24 11:01:08;;;;;;;3.28;0.30;;;;;;;12.56;100.00;99140.88;5000235;28;20041;-91
2023/12/24 11:03:47;;;;;;;0.45;0.20;;;;;;;12.58;100.00;99138.03;5034814;28;20151;-90
2023/12/24 11:06:40;;;;;;;2.15;0.40;;;;;;;12.45;100.00;99080.41;5028068;28;20037;-92
2023/12/24 11:09:29;;;;;;;2.33;0.28;;;;;;;12.51;100.00;99119.41;4997823;28;20037;-91
2023/12/24 11:11:57;;;;;;;1.83;0.40;;;;;;;12.46;100.00;99111.19;5006753;28;20045;-94
2023/12/24 11:14:45;;;;;;;3.25;0.70;;;;;;;12.46;100.00;99097.94;5009453;28;20038;-92
2023/12/24 11:17:33;;;;;;;1.33;0.40;;;;;;;12.40;100.00;99104.84;5000796;28;20101;-95
2023/12/24 11:20:18;;;;;;;2.38;0.50;;;;;;;12.38;100.00;99098.91;5013677;28;20038;-94
2023/12/24 11:23:06;;;;;;;2.75;0.80;;;;;;;12.36;100.00;99109.69;5002040;28;20108;-93
2023/12/24 11:25:43;;;;;;;3.90;0.80;;;;;;;12.39;100.00;99111.97;4999887;28;20057;-96